Tiempo atmosférico en la estación meteorológica de La Pobla de Massaluca, Tarragona (365 m.)



Fecha
DESCASC
Temp. máxima en grados centígrados (hora)
DESCASC
Temp. mínima en grados centígrados (hora)
DESCASC
Temp. media en grados centígrados
DESCASC
Racha de viento máxima en m/sg (hora)
DESCASC
Velocidad máxima media en intervalos de 10 minutos(hora)
DESCASC
Precipitaciones diarias en mm
DESCASC
Precipitaciones de 00:00 a 06:00 en mm
DESCASC
Precipitaciones de 06:00 a 12:00 en mm
DESCASC
Precipitaciones de 12:00 a 18:00 en mm
DESCASC
Precipitaciones de 18:00 a 24:00 en mm
DESCASC
31-03-2020 4.2 (00:00) 1.5 (05:50) 2.8 4.44 (17:00) 2.78 (14:30) 7.4 1.8 1 4 0.6
29-03-2020 17.9 (17:30) 7.7 (00:00) 12.8 13.33 (15:50) 8.33 (15:40) 0 0 0 0 0
28-03-2020 16.9 (15:50) 6.9 (00:00) 11.9 5 (13:20) 3.06 (23:20) 0 0 0 0 0
27-03-2020 13.9 (17:40) 1.5 (00:00) 7.7 5.28 (13:00) 3.33 (12:40) 0 0 0 0 0
26-03-2020 13.5 (15:20) 3.8 (00:00) 8.6 11.39 (09:50) 7.78 (09:50) 13 0 0 12.8 0.2
25-03-2020 10.7 (17:00) 4.9 (00:00) 7.8 7.78 (11:20) 4.44 (09:30) 0.8 0 0.8 0 0
24-03-2020 13.1 (11:50) 7.8 (00:00) 10.5 9.44 (18:20) 5.56 (03:30) 0 0 0 0 0
23-03-2020 14.9 (13:10) 9 (00:00) 11.9 11.67 (13:50) 5.83 (13:50) 6.2 0 0.2 6 0
22-03-2020 15.1 (11:50) 7.1 (05:00) 11.1 7.5 (12:30) 4.17 (12:40) 0.2 0 0 0 0.2
21-03-2020 16.8 (15:40) 6.4 (00:00) 11.6 7.78 (18:10) 3.89 (14:20) 0 0 0 0 0
20-03-2020 15.8 (16:10) 6.8 (00:00) 11.3 10.56 (13:30) 5.56 (14:20) 0 0 0 0 0
19-03-2020 16.3 (15:40) 7.8 (00:00) 12 9.44 (15:00) 5 (15:30) 0 0 0 0 0
18-03-2020 16.7 (16:10) 8.7 (00:00) 12.7 4.44 (16:00) 2.78 (21:00) 0 0 0 0 0
17-03-2020 15 (15:50) 11.1 (00:00) 13.1 15.83 (06:40) 9.17 (06:40) 0 0 0 0 0
16-03-2020 13.4 (16:00) 10.5 (00:00) 11.9 16.39 (23:10) 10 (23:20) 2.6 1.4 0 1 0.2
15-03-2020 17.2 (14:40) 7.6 (00:00) 12.4 15 (22:50) 6.94 (22:50) 0.2 0 0 0 0.2
14-03-2020 18.3 (17:30) 7 (00:00) 12.6 10 (10:10) 5.83 (11:50) 0 0 0 0 0
13-03-2020 17.9 (15:40) 9.9 (07:20) 13.9 -- (--) -- (--) 0 0 0 0 0
12-03-2020 25.2 (15:20) 10.7 (00:00) 18 8.33 (23:40) 6.11 (23:40) 0 0 0 0 0
11-03-2020 -- (--) -- (--) -- -- (--) -- (--) -- 0 0 -- 0
10-03-2020 20.7 (16:50) 7.7 (00:00) 14.2 11.11 (10:50) 7.5 (11:10) 0 0 0 0 0
09-03-2020 14.8 (15:30) 8.2 (00:00) 11.5 23.06 (14:10) 16.11 (14:40) 0 0 0 0 0
08-03-2020 17.6 (15:20) 6.6 (00:00) 12.1 11.11 (14:20) 7.22 (14:20) 0 0 0 0 0
07-03-2020 16.1 (16:20) 4.5 (00:00) 10.3 18.06 (00:10) 12.22 (16:40) 0 0 0 0 0
06-03-2020 11 (15:30) 4.9 (00:00) 8 25.56 (18:50) 16.39 (13:30) 0 0 0 0 0
05-03-2020 19 (13:30) 8.8 (00:00) 13.9 26.39 (14:30) 15.56 (14:30) 0 0 0 0 0
04-03-2020 19.3 (17:10) 8.6 (04:50) 13.9 13.89 (14:10) 9.72 (14:30) 0 0 0 0 0

Gráficas

Temp. máximas Temp. mínimas Temp. medias Precipitaciones Rachas de viento máximas Velocidades máximas media en intervalos de 10 minutos

Datos horarios

Fecha y hora oficial Temperatura (ºC) Velocidad del viento (km/h) Dirección del viento Racha (km/h) Dirección de racha Precipitación (mm) Presión (hPa) Tendencia (hPa) Humedad (%)
2020-04-02 23:00:00 10.1 8 Sudeste 12 Sudeste 0.2 -- -- 94
2020-04-02 22:00:00 10.8 7 Sur 12 Sur 0.2 -- -- 86
2020-04-02 21:00:00 11.3 8 Sur 12 Sur 0 -- -- 82
2020-04-02 20:00:00 12.4 4 Sur 12 Sudoeste 0 -- -- 78
2020-04-02 19:00:00 13.3 7 Sudoeste 12 Sudoeste 0 -- -- 74
2020-04-02 18:00:00 12.2 5 Sudoeste 9 Oeste 0 -- -- 78
2020-04-02 17:00:00 12.1 0 Calma 5 Sudoeste 0 -- -- 77
2020-04-02 16:00:00 12.3 2 Noroeste 8 Norte 0 -- -- 75
2020-04-02 15:00:00 12.2 5 Nordeste 10 Nordeste 0 -- -- 78
2020-04-02 14:00:00 11 3 Noroeste 9 Oeste 0 -- -- 84
2020-04-02 13:00:00 10 2 Norte 8 Norte 0 -- -- 88
2020-04-02 12:00:00 9.3 4 Noroeste 9 Oeste 0 -- -- 99
2020-04-02 11:00:00 8.5 5 Oeste 9 Noroeste 0 -- -- 100
2020-04-02 10:00:00 7.7 6 Oeste 9 Noroeste 0 -- -- 100
2020-04-02 09:00:00 7.3 4 Oeste 9 Oeste 0 -- -- 100
2020-04-02 08:00:00 7.2 7 Oeste 9 Oeste 0 -- -- 100
2020-04-02 07:00:00 7.3 0 Calma 5 Oeste 0 -- -- 100
2020-04-02 06:00:00 7.5 2 Noroeste 9 Norte 0 -- -- 100
2020-04-02 05:00:00 7.6 2 Noroeste 7 Noroeste 0 -- -- 100
2020-04-02 04:00:00 7.8 0 Calma 5 Noroeste 0 -- -- 100
2020-04-02 03:00:00 7.9 4 Oeste 6 Oeste 0 -- -- 100
2020-04-02 02:00:00 7.8 4 Oeste 6 Noroeste 0 -- -- 100
2020-04-02 01:00:00 7.9 5 Oeste 8 Oeste 0 -- -- 100
2020-04-02 00:00:00 8 4 Sudoeste 6 Sudoeste 0 -- -- 100
2020-04-01 23:00:00 8 3 Sudoeste 6 Sudoeste 0 -- -- 100
2020-04-01 22:00:00 8.2 3 Oeste 8 Oeste 0 -- -- 100
2020-04-01 21:00:00 8.2 0 Calma 7 Oeste 0 -- -- 100
2020-04-01 20:00:00 8.1 4 Oeste 8 Norte 0.4 -- -- 100
2020-04-01 19:00:00 8 4 Oeste 15 Nordeste 5 -- -- 100
2020-04-01 18:00:00 7.9 0 Calma 10 Oeste 10.4 -- -- 100
2020-04-01 17:00:00 7.8 7 Oeste 14 Noroeste 4.8 -- -- 100
2020-04-01 16:00:00 7.6 11 Oeste 18 Oeste 3 -- -- 100
2020-04-01 15:00:00 7.3 10 Oeste 15 Oeste 4.2 -- -- 100
2020-04-01 14:00:00 7 10 Oeste 13 Oeste 1.6 -- -- 100
2020-04-01 13:00:00 6.7 7 Oeste 11 Oeste 1.2 -- -- 100
2020-04-01 12:00:00 6.8 7 Noroeste 21 Este 0.2 -- -- 100
2020-04-01 11:00:00 7.3 4 Este 16 Este 0 -- -- 100
2020-04-01 10:00:00 5.7 2 Norte 8 Este 0 -- -- 100
2020-04-01 09:00:00 5.1 5 Oeste 11 Sudoeste 0 -- -- 100
2020-04-01 08:00:00 4.9 6 Oeste 9 Sudoeste 0 -- -- 100
2020-04-01 07:00:00 4.7 3 Oeste 5 Sudoeste 0.6 -- -- 100
2020-04-01 06:00:00 4.4 0 Calma 8 Sudoeste 0.2 -- -- 100
2020-04-01 05:00:00 4.4 3 Oeste 9 Oeste 0.2 -- -- 100
2020-04-01 04:00:00 4.2 5 Oeste 8 Oeste 0 -- -- 100
2020-04-01 03:00:00 4.2 0 Calma 4 Sudoeste 0 -- -- 100
2020-04-01 02:00:00 4 0 Calma 6 Oeste 0 -- -- 100
2020-04-01 01:00:00 3.9 2 Oeste 8 Oeste 0 -- -- 100
2020-04-01 00:00:00 3.9 0 Calma 9 Sudoeste 0.2 -- -- 100
2020-03-31 23:00:00 3.8 5 Sudoeste 10 Sudoeste 0 -- -- 100
2020-03-31 22:00:00 3.7 2 Oeste 8 Sudoeste 0 -- -- 100
2020-03-31 21:00:00 3.6 5 Oeste 9 Oeste 0 -- -- 100
2020-03-31 20:00:00 3.6 5 Oeste 11 Oeste 0.2 -- -- 100
2020-03-31 19:00:00 3.5 6 Oeste 12 Oeste 0.2 -- -- 100
2020-03-31 18:00:00 3.2 7 Oeste 14 Sudoeste 1.2 -- -- 100
2020-03-31 17:00:00 3.1 8 Oeste 16 Oeste 0.4 -- -- 100
2020-03-31 16:00:00 3 8 Oeste 14 Oeste 0.2 -- -- 100
2020-03-31 15:00:00 2.8 10 Oeste 15 Oeste 0.2 -- -- 100
2020-03-31 14:00:00 2.7 7 Oeste 11 Oeste 1.2 -- -- 100
2020-03-31 13:00:00 2.4 4 Oeste 10 Oeste 0.8 -- -- 100
2020-03-31 12:00:00 2.1 5 Oeste 12 Oeste 0 -- -- 100
2020-03-31 11:00:00 1.9 7 Oeste 12 Oeste 0 -- -- 99
2020-03-31 10:00:00 1.7 5 Oeste 10 Oeste 0.2 -- -- 99
2020-03-31 09:00:00 1.5 6 Oeste 12 Oeste 0 -- -- 99
2020-03-31 08:00:00 1.5 8 Oeste 12 Oeste 0.2 -- -- 99
2020-03-31 07:00:00 1.6 7 Oeste 12 Oeste 0.6 -- -- 99
2020-03-31 06:00:00 1.5 6 Oeste 14 Sudoeste 1 -- -- 98
2020-03-31 05:00:00 1.9 9 Oeste 14 Oeste 0.4 -- -- 98
2020-03-31 04:00:00 2 6 Oeste 13 Oeste 0 -- -- 97
2020-03-31 03:00:00 2.2 8 Oeste 15 Sudoeste 0 -- -- 96
2020-03-31 02:00:00 2.7 9 Oeste 14 Sudoeste 0.2 -- -- 93
2020-03-31 01:00:00 3.2 7 Oeste 15 Oeste 0.2 -- -- 88
2020-03-31 00:00:00 4.2 10 Oeste 20 Oeste 0 -- -- 76
2020-03-30 23:00:00 4.8 13 Oeste 27 Oeste 0 -- -- 67
2020-03-30 22:00:00 5.6 14 Oeste 23 Oeste 0 -- -- 61
2020-03-30 21:00:00 6.4 13 Oeste 22 Oeste 0 -- -- 55
2020-03-30 20:00:00 6.4 5 Oeste 15 Sudoeste 0 -- -- 53
2020-03-30 19:00:00 6.7 9 Oeste 18 Sudoeste 0 -- -- 50
2020-03-30 18:00:00 6.6 10 Sudoeste 22 Oeste 0 -- -- 50
2020-03-30 17:00:00 6.4 15 Oeste 28 Oeste 0 -- -- 51
2020-03-30 16:00:00 6.2 9 Sudoeste 27 Sudoeste 0 -- -- 50
2020-03-30 15:00:00 6.9 17 Oeste 31 Oeste 0 -- -- 47
2020-03-30 14:00:00 6.4 18 Oeste 37 Oeste 0 -- -- 47
2020-03-30 13:00:00 5.9 20 Oeste 39 Sudoeste 0 -- -- 47
2020-03-30 12:00:00 5.6 24 Oeste 42 Oeste 0 -- -- 52
2020-03-30 11:00:00 5.1 26 Oeste 40 Oeste 0 -- -- 57
2020-03-30 10:00:00 4.5 22 Oeste 45 Oeste 0 -- -- 62
2020-03-30 09:00:00 4.2 31 Oeste 45 Oeste 0 -- -- 67
2020-03-30 08:00:00 4.7 27 Oeste 45 Sudoeste 0 -- -- 68
2020-03-30 07:00:00 5.1 29 Oeste 53 Oeste 0 -- -- 71
2020-03-30 06:00:00 6 31 Oeste 53 Oeste 0 -- -- 71
2020-03-30 05:00:00 6.7 26 Oeste 53 Oeste 0 -- -- 73
2020-03-30 04:00:00 7.4 34 Oeste 51 Sudoeste 0 -- -- 75
2020-03-30 03:00:00 8.2 25 Oeste 50 Oeste 0 -- -- 74
2020-03-30 02:00:00 8.3 27 Oeste 40 Sudoeste 0 -- -- 74
2020-03-30 01:00:00 8.6 20 Oeste 37 Oeste 0 -- -- 71
2020-03-30 00:00:00 9.1 16 Oeste 37 Sudoeste 0 -- -- 68
2020-03-29 23:00:00 9.7 22 Oeste 40 Oeste 0 -- -- 67
2020-03-29 22:00:00 11.2 29 Oeste 45 Oeste 0 -- -- 63
2020-03-29 21:00:00 12.8 16 Oeste 35 Oeste 0 -- -- 56
2020-03-29 20:00:00 15 21 Oeste 40 Oeste 0 -- -- 48
2020-03-29 19:00:00 17 23 Oeste 39 Oeste 0 -- -- 39
2020-03-29 18:00:00 17.8 23 Oeste 40 Oeste 0 -- -- 36
2020-03-29 17:00:00 17.5 28 Oeste 45 Oeste 0 -- -- 37
2020-03-29 16:00:00 17.3 24 Oeste 48 Oeste 0 -- -- 38
2020-03-29 15:00:00 16.7 26 Oeste 42 Oeste 0 -- -- 36
2020-03-29 14:00:00 15.7 26 Oeste 44 Oeste 0 -- -- 40
2020-03-29 13:00:00 14.2 28 Oeste 41 Sudoeste 0 -- -- 44
2020-03-29 12:00:00 12.8 21 Oeste 39 Oeste 0 -- -- 50
2020-03-29 11:00:00 11.2 21 Oeste 39 Oeste 0 -- -- 52
2020-03-29 10:00:00 9.9 22 Oeste 38 Oeste 0 -- -- 55
2020-03-29 09:00:00 8.7 17 Oeste 25 Sudoeste 0 -- -- 63
2020-03-29 08:00:00 7.8 14 Oeste 23 Sudoeste 0 -- -- 69
2020-03-29 07:00:00 8.1 15 Sudoeste 21 Sudoeste 0 -- -- 70
2020-03-29 06:00:00 8.4 16 Oeste 23 Oeste 0 -- -- 72
2020-03-29 05:00:00 8.9 14 Sudoeste 18 Sudoeste 0 -- -- 71
2020-03-29 03:00:00 9.9 3 Oeste 11 Sudoeste 0 -- -- 66
2020-03-29 01:00:00 10.5 3 Oeste 17 Sudoeste 0 -- -- 63
2020-03-29 00:00:00 10.9 6 Sudoeste 18 Sudoeste 0 -- -- 60
2020-03-28 23:00:00 11.4 10 Sudoeste 16 Sudoeste 0 -- -- 58
2020-03-28 22:00:00 12.5 6 Sudoeste 10 Sudoeste 0 -- -- 53
2020-03-28 21:00:00 12.5 8 Sudoeste 13 Oeste 0 -- -- 54
2020-03-28 20:00:00 13.1 8 Sudoeste 12 Oeste 0 -- -- 54
2020-03-28 19:00:00 15.1 8 Oeste 13 Oeste 0 -- -- 50
2020-03-28 18:00:00 16.4 5 Oeste 13 Oeste 0 -- -- 44
2020-03-28 17:00:00 16.3 4 Norte 15 Oeste 0 -- -- 44
2020-03-28 16:00:00 16.9 5 Sudoeste 14 Sur 0 -- -- 44
2020-03-28 15:00:00 15.9 6 Nordeste 14 Noroeste 0 -- -- 43
2020-03-28 14:00:00 14.4 7 Oeste 18 Oeste 0 -- -- 48
2020-03-28 13:00:00 13.3 8 Oeste 17 Oeste 0 -- -- 54
2020-03-28 12:00:00 11.7 10 Oeste 17 Oeste 0 -- -- 60
2020-03-28 11:00:00 10.2 8 Oeste 17 Oeste 0 -- -- 67
2020-03-28 10:00:00 9.2 7 Oeste 14 Oeste 0 -- -- 73
2020-03-28 09:00:00 8 8 Oeste 13 Sudoeste 0 -- -- 79
2020-03-28 08:00:00 7.1 7 Oeste 10 Oeste 0 -- -- 79
2020-03-28 07:00:00 6.9 6 Sudoeste 12 Oeste 0 -- -- 78
2020-03-28 06:00:00 7.4 7 Oeste 10 Sudoeste 0 -- -- 71
2020-03-28 05:00:00 7.4 4 Oeste 6 Oeste 0 -- -- 72
2020-03-28 04:00:00 7.6 4 Nordeste 9 Sudeste 0 -- -- 70
2020-03-28 03:00:00 7.9 4 Sudeste 13 Sudeste 0 -- -- 68
2020-03-28 02:00:00 8.1 6 Sudeste 10 Sudeste 0 -- -- 66
2020-03-28 01:00:00 8.1 8 Sudeste 14 Sudeste 0 -- -- 66
2020-03-28 00:00:00 8.4 9 Sudeste 18 Sudeste 0 -- -- 65
2020-03-27 23:00:00 8.8 5 Este 14 Este 0 -- -- 66
2020-03-27 22:00:00 9.4 6 Este 10 Este 0 -- -- 59
2020-03-27 21:00:00 9.8 6 Nordeste 10 Nordeste 0 -- -- 58
2020-03-27 20:00:00 11.5 2 Noroeste 4 Noroeste 0 -- -- 46
2020-03-27 19:00:00 13.1 2 Noroeste 6 Sudoeste 0 -- -- 43
2020-03-27 18:00:00 13.7 2 Este 10 Oeste 0 -- -- 44
2020-03-27 17:00:00 13.3 4 Norte 10 Noroeste 0 -- -- 44
2020-03-27 16:00:00 12.9 3 Oeste 14 Noroeste 0 -- -- 46
2020-03-27 15:00:00 11.7 5 Oeste 14 Noroeste 0 -- -- 58
2020-03-27 14:00:00 10.8 5 Oeste 14 Noroeste 0 -- -- 62
2020-03-27 13:00:00 8.9 10 Oeste 19 Oeste 0 -- -- 73
2020-03-27 12:00:00 8.2 8 Oeste 15 Oeste 0 -- -- 81
2020-03-27 11:00:00 5.8 6 Oeste 15 Oeste 0 -- -- 93
2020-03-27 10:00:00 3.9 8 Oeste 14 Oeste 0 -- -- 100
2020-03-27 09:00:00 2.8 6 Oeste 13 Oeste 0 -- -- 99
2020-03-27 08:00:00 1.8 6 Oeste 12 Oeste 0 -- -- 99
2020-03-27 07:00:00 1.8 7 Oeste 11 Sudoeste 0 -- -- 98
2020-03-27 06:00:00 2.2 4 Oeste 11 Sudoeste 0 -- -- 97
2020-03-27 05:00:00 3.2 0 Calma 4 Oeste 0 -- -- 97
2020-03-27 04:00:00 3.3 3 Nordeste 6 Nordeste 0 -- -- 96
2020-03-27 03:00:00 3.3 4 Nordeste 8 Nordeste 0 -- -- 96
2020-03-27 02:00:00 3.5 4 Nordeste 10 Nordeste 0 -- -- 95
2020-03-27 01:00:00 3.7 4 Nordeste 5 Nordeste 0 -- -- 93
2020-03-27 00:00:00 4.1 0 Calma 8 Sudeste 0 -- -- 91
2020-03-26 23:00:00 4.6 5 Sudeste 15 Sudeste 0 -- -- 90
2020-03-26 22:00:00 3.8 5 Este 11 Este 0 -- -- 96
2020-03-26 21:00:00 4.6 6 Este 11 Este 0 -- -- 93
2020-03-26 20:00:00 4.8 10 Este 23 Este 0 -- -- 93
2020-03-26 19:00:00 4.9 12 Este 28 Este 0.2 -- -- 92
2020-03-26 18:00:00 4.5 12 Sudeste 21 Sudeste 3.4 -- -- 92
2020-03-26 17:00:00 5.2 5 Oeste 33 Norte 8.6 -- -- 87
2020-03-26 16:00:00 9.3 8 Sudeste 32 Nordeste 0.8 -- -- 75
2020-03-26 15:00:00 12.7 5 Nordeste 18 Sudoeste 0 -- -- 48
2020-03-26 14:00:00 10.9 9 Oeste 19 Oeste 0 -- -- 56
2020-03-26 13:00:00 11.5 11 Noroeste 31 Norte 0 -- -- 53
2020-03-26 12:00:00 11.3 13 Noroeste 35 Noroeste 0 -- -- 53
2020-03-26 11:00:00 9.6 20 Oeste 37 Oeste 0 -- -- 63
2020-03-26 10:00:00 7.8 26 Oeste 41 Oeste 0 -- -- 72
2020-03-26 09:00:00 6.2 18 Oeste 29 Sudoeste 0 -- -- 78
2020-03-26 08:00:00 4.3 11 Oeste 20 Oeste 0 -- -- 87
2020-03-26 07:00:00 4 13 Oeste 26 Oeste 0 -- -- 92
2020-03-26 06:00:00 4.9 13 Oeste 22 Oeste 0 -- -- 96
2020-03-26 05:00:00 4.9 8 Oeste 16 Sudoeste 0 -- -- 94
2020-03-26 04:00:00 5.1 4 Sudoeste 6 Sudoeste 0 -- -- 91
2020-03-26 03:00:00 5.4 0 Calma 5 Oeste 0 -- -- 89
2020-03-26 02:00:00 5.4 2 Oeste 6 Oeste 0 -- -- 89
2020-03-26 01:00:00 6 0 Calma 7 Este 0 -- -- 86
2020-03-26 00:00:00 5.9 5 Este 12 Este 0 -- -- 84
2020-03-25 23:00:00 6 5 Este 14 Sudeste 0 -- -- 84
2020-03-25 22:00:00 5.7 4 Este 16 Sudeste 0 -- -- 85
2020-03-25 21:00:00 6 10 Sudeste 19 Este 0 -- -- 83
2020-03-25 20:00:00 6.4 8 Sudeste 14 Sudeste 0 -- -- 81
2020-03-25 19:00:00 8.3 6 Este 13 Sudeste 0 -- -- 73
2020-03-25 18:00:00 10.2 4 Nordeste 14 Sur 0 -- -- 64
2020-03-25 17:00:00 10.7 8 Sudeste 17 Este 0 -- -- 63
2020-03-25 16:00:00 9.8 9 Sudeste 18 Sur 0 -- -- 69
2020-03-25 15:00:00 9.3 7 Este 23 Este 0 -- -- 67
2020-03-25 14:00:00 8.5 12 Este 25 Este 0 -- -- 70
2020-03-25 13:00:00 6.9 11 Este 27 Este 0 -- -- 73
2020-03-25 12:00:00 6.3 12 Este 28 Este 0 -- -- 76
2020-03-25 11:00:00 5.6 15 Este 23 Este 0.2 -- -- 81
2020-03-25 10:00:00 5.1 14 Este 24 Este 0 -- -- 84
2020-03-25 09:00:00 4.9 14 Nordeste 23 Este 0 -- -- 81
2020-03-25 08:00:00 5 13 Este 22 Este 0.6 -- -- 90
2020-03-25 07:00:00 5.7 12 Este 19 Este 0 -- -- 85
2020-03-25 06:00:00 6.2 4 Este 13 Este 0 -- -- 85
2020-03-25 05:00:00 6.5 3 Norte 15 Este 0 -- -- 84
2020-03-25 04:00:00 6.6 8 Este 21 Este 0 -- -- 83
2020-03-25 03:00:00 6.8 12 Este 22 Este 0 -- -- 86
2020-03-25 02:00:00 7 8 Nordeste 16 Este 0 -- -- 92
2020-03-25 01:00:00 7.2 8 Este 19 Este 0 -- -- 89
2020-03-25 00:00:00 7.8 10 Este 24 Este 0 -- -- 87
2020-03-24 23:00:00 8.2 11 Este 23 Este 0 -- -- 85
2020-03-24 22:00:00 8.7 9 Este 21 Este 0 -- -- 80
2020-03-24 21:00:00 9.1 9 Este 30 Sudeste 0 -- -- 77
2020-03-24 20:00:00 9.6 6 Este 27 Sudeste 0 -- -- 79
2020-03-24 19:00:00 10.2 9 Este 34 Este 0 -- -- 74
2020-03-24 18:00:00 11.5 13 Este 32 Este 0 -- -- 67
2020-03-24 17:00:00 12.5 14 Sudeste 26 Sudeste 0 -- -- 60
2020-03-24 16:00:00 12.2 11 Este 28 Este 0 -- -- 64
2020-03-24 15:00:00 11.5 12 Este 25 Este 0 -- -- 73
2020-03-24 14:00:00 12.4 11 Este 24 Este 0 -- -- 68
2020-03-24 13:00:00 12.8 12 Sudeste 30 Sudeste 0 -- -- 65
2020-03-24 12:00:00 13 12 Este 29 Este 0 -- -- 64
2020-03-24 11:00:00 12.1 13 Este 30 Este 0 -- -- 66
2020-03-24 10:00:00 10.6 14 Este 30 Este 0 -- -- 72
2020-03-24 09:00:00 9.8 13 Este 28 Este 0 -- -- 77
2020-03-24 08:00:00 9.5 10 Este 23 Este 0 -- -- 82
2020-03-24 07:00:00 9.2 6 Este 21 Nordeste 0 -- -- 84
2020-03-24 06:00:00 8.8 10 Nordeste 22 Este 0 -- -- 86
2020-03-24 05:00:00 8.8 13 Nordeste 20 Nordeste 0 -- -- 86
2020-03-24 04:00:00 9.2 15 Nordeste 32 Nordeste 0 -- -- 87
2020-03-24 03:00:00 10 16 Nordeste 28 Este 0 -- -- 89
2020-03-24 02:00:00 9.6 12 Nordeste 22 Nordeste 0 -- -- 92
2020-03-24 01:00:00 9.8 10 Nordeste 30 Este 0 -- -- 90
2020-03-24 00:00:00 10.3 18 Este 34 Este 0 -- -- 88
2020-03-23 23:00:00 9.6 5 Nordeste 11 Este 0 -- -- 93
2020-03-23 22:00:00 9.8 8 Este 19 Este 0 -- -- 93
2020-03-23 21:00:00 10.1 11 Este 23 Nordeste 0 -- -- 92
2020-03-23 20:00:00 10.4 11 Este 28 Este 0 -- -- 92
2020-03-23 19:00:00 11.2 13 Este 29 Este 0 -- -- 89
2020-03-23 18:00:00 11.8 14 Este 29 Este 0 -- -- 91
2020-03-23 17:00:00 11.7 10 Este 31 Este 1.4 -- -- 93
2020-03-23 16:00:00 12.2 8 Sudeste 19 Este 0.8 -- -- 90
2020-03-23 15:00:00 12 11 Sudoeste 23 Este 0.4 -- -- 90
2020-03-23 14:00:00 12.1 15 Nordeste 42 Este 3.4 -- -- 87
2020-03-23 13:00:00 14.3 16 Este 32 Este 0 -- -- 75
2020-03-23 12:00:00 13.5 17 Este 33 Este 0 -- -- 79
2020-03-23 11:00:00 11.8 11 Nordeste 20 Este 0 -- -- 92
2020-03-23 10:00:00 10.4 6 Nordeste 9 Este 0.2 -- -- 95
2020-03-23 09:00:00 10.2 3 Este 8 Nordeste 0 -- -- 94
2020-03-23 08:00:00 9.6 4 Nordeste 6 Nordeste 0 -- -- 95
2020-03-23 07:00:00 9.5 3 Nordeste 6 Norte 0 -- -- 94
2020-03-23 06:00:00 9.2 3 Nordeste 9 Nordeste 0 -- -- 96
2020-03-23 05:00:00 9.5 4 Nordeste 8 Nordeste 0 -- -- 95
2020-03-23 04:00:00 9.4 3 Nordeste 10 Este 0 -- -- 94
2020-03-23 03:00:00 9.5 3 Nordeste 5 Nordeste 0 -- -- 93
2020-03-23 02:00:00 9.3 0 Calma 7 Este 0 -- -- 93
2020-03-23 01:00:00 9.2 3 Este 11 Este 0 -- -- 92
2020-03-23 00:00:00 9.9 6 Este 12 Este 0 -- -- 91
2020-03-22 23:00:00 10.4 8 Este 20 Este 0.2 -- -- 92
2020-03-22 22:00:00 10.5 9 Este 15 Este 0 -- -- 93
2020-03-22 21:00:00 10.4 6 Este 14 Este 0 -- -- 93
2020-03-22 20:00:00 10.4 9 Este 17 Este 0 -- -- 92
2020-03-22 19:00:00 10.7 5 Este 14 Sudeste 0 -- -- 90
2020-03-22 18:00:00 11 10 Sudeste 20 Sudeste 0 -- -- 86
2020-03-22 17:00:00 11.6 10 Este 20 Este 0 -- -- 82
2020-03-22 16:00:00 11.9 8 Este 25 Sudeste 0 -- -- 76
2020-03-22 15:00:00 12.3 9 Este 20 Este 0 -- -- 79
2020-03-22 14:00:00 12.6 10 Sudeste 22 Sudeste 0 -- -- 75
2020-03-22 13:00:00 13.8 11 Este 27 Sudeste 0 -- -- 68
2020-03-22 12:00:00 15 10 Este 24 Este 0 -- -- 61
2020-03-22 11:00:00 14.1 7 Este 20 Este 0 -- -- 65
2020-03-22 10:00:00 11.9 3 Este 9 Este 0 -- -- 77
2020-03-22 09:00:00 10 0 Calma 5 Sudeste 0 -- -- 84
2020-03-22 08:00:00 8.3 2 Este 9 Este 0 -- -- 87
2020-03-22 07:00:00 7.3 5 Este 9 Nordeste 0 -- -- 88
2020-03-22 06:00:00 7.5 6 Nordeste 11 Este 0 -- -- 86
2020-03-22 05:00:00 7.1 7 Nordeste 11 Nordeste 0 -- -- 89
2020-03-22 04:00:00 7.3 7 Este 12 Nordeste 0 -- -- 90
2020-03-22 03:00:00 7.3 9 Nordeste 14 Este 0 -- -- 89
2020-03-22 02:00:00 7.4 12 Este 13 Este 0 -- -- 89
2020-03-22 01:00:00 7.7 10 Este 12 Este 0 -- -- 88
2020-03-22 00:00:00 8.4 8 Este 13 Este 0 -- -- 86
2020-03-21 23:00:00 8.6 5 Este 14 Este 0 -- -- 87
2020-03-21 22:00:00 8.9 6 Este 15 Nordeste 0 -- -- 87
2020-03-21 21:00:00 9.4 8 Este 17 Este 0 -- -- 83
2020-03-21 20:00:00 10.5 5 Este 15 Sudeste 0 -- -- 73
2020-03-21 19:00:00 12.3 10 Sudeste 28 Sudeste 0 -- -- 64
2020-03-21 18:00:00 14.5 13 Sudeste 27 Este 0 -- -- 55
2020-03-21 17:00:00 15.3 10 Este 25 Este 0 -- -- 52
2020-03-21 16:00:00 16.5 10 Este 23 Sudeste 0 -- -- 46
2020-03-21 15:00:00 16.4 10 Este 24 Este 0 -- -- 47
2020-03-21 14:00:00 16 9 Este 25 Este 0 -- -- 50
2020-03-21 13:00:00 15.3 9 Este 24 Este 0 -- -- 53
2020-03-21 12:00:00 13.8 11 Este 24 Nordeste 0 -- -- 56
2020-03-21 11:00:00 13 9 Nordeste 20 Este 0 -- -- 57
2020-03-21 10:00:00 11.6 4 Este 12 Nordeste 0 -- -- 72
2020-03-21 09:00:00 8.9 2 Este 8 Este 0 -- -- 88
2020-03-21 08:00:00 6.7 4 Este 6 Este 0 -- -- 96
2020-03-21 07:00:00 6.6 3 Nordeste 5 Este 0 -- -- 95
2020-03-21 06:00:00 6.5 4 Nordeste 8 Este 0 -- -- 94
2020-03-21 05:00:00 7 4 Nordeste 7 Este 0 -- -- 93
2020-03-21 04:00:00 6.9 5 Este 9 Este 0 -- -- 92
2020-03-21 03:00:00 7 6 Este 10 Nordeste 0 -- -- 91
2020-03-21 02:00:00 7.2 7 Nordeste 13 Nordeste 0 -- -- 91
2020-03-21 01:00:00 7.6 10 Este 14 Este 0 -- -- 91
2020-03-21 00:00:00 8.2 9 Este 13 Este 0 -- -- 90
2020-03-20 23:00:00 8.5 6 Este 14 Este 0 -- -- 90
2020-03-20 22:00:00 9 7 Este 15 Este 0 -- -- 90
2020-03-20 21:00:00 9.6 8 Este 18 Este 0 -- -- 86
2020-03-20 20:00:00 10.2 5 Este 19 Este 0 -- -- 78
2020-03-20 19:00:00 11.6 10 Este 25 Sudeste 0 -- -- 70
2020-03-20 18:00:00 13.2 14 Este 30 Nordeste 0 -- -- 61
2020-03-20 17:00:00 14.2 13 Este 33 Nordeste 0 -- -- 56
2020-03-20 16:00:00 15.6 12 Sudeste 32 Este 0 -- -- 53
2020-03-20 15:00:00 15 19 Este 33 Este 0 -- -- 59
2020-03-20 14:00:00 15.2 11 Este 38 Este 0 -- -- 56
2020-03-20 13:00:00 14.9 15 Este 32 Este 0 -- -- 58
2020-03-20 12:00:00 13.7 15 Este 30 Nordeste 0 -- -- 62
2020-03-20 11:00:00 13 12 Este 28 Este 0 -- -- 74
2020-03-20 10:00:00 12 14 Este 24 Este 0 -- -- 79
2020-03-20 09:00:00 9 3 Nordeste 6 Nordeste 0 -- -- 92
2020-03-20 08:00:00 7.5 0 Calma 7 Nordeste 0 -- -- 95
2020-03-20 07:00:00 7 6 Nordeste 11 Este 0 -- -- 95
2020-03-20 06:00:00 7.3 9 Este 13 Este 0 -- -- 96
2020-03-20 05:00:00 6.9 8 Este 10 Este 0 -- -- 96
2020-03-20 04:00:00 7 9 Este 14 Este 0 -- -- 94
2020-03-20 03:00:00 7.4 12 Este 21 Este 0 -- -- 92
2020-03-20 02:00:00 7.8 14 Este 31 Este 0 -- -- 92
2020-03-20 01:00:00 8.1 15 Este 25 Sudeste 0 -- -- 91
2020-03-20 00:00:00 8.5 12 Este 29 Este 0 -- -- 88
2020-03-19 23:00:00 8.8 10 Este 24 Este 0 -- -- 86
2020-03-19 22:00:00 8.9 9 Este 23 Este 0 -- -- 84
2020-03-19 21:00:00 9 8 Este 18 Este 0 -- -- 74
2020-03-19 20:00:00 10.1 9 Este 21 Este 0 -- -- 69
2020-03-19 19:00:00 12 7 Este 28 Este 0 -- -- 63
2020-03-19 18:00:00 13.7 12 Este 33 Este 0 -- -- 58
2020-03-19 17:00:00 15.3 16 Este 30 Este 0 -- -- 53
2020-03-19 16:00:00 16.2 14 Este 31 Este 0 -- -- 50
2020-03-19 15:00:00 16.2 15 Este 34 Este 0 -- -- 56
2020-03-19 14:00:00 16.1 13 Este 31 Este 0 -- -- 60
2020-03-19 13:00:00 14.7 10 Este 27 Sudeste 0 -- -- 67
2020-03-19 12:00:00 14.6 13 Sudeste 26 Sudeste 0 -- -- 58
2020-03-19 11:00:00 13.4 11 Sudeste 17 Sur 0 -- -- 61
2020-03-19 10:00:00 11.9 0 Calma 7 Nordeste 0 -- -- 73
2020-03-19 09:00:00 9.6 3 Nordeste 4 Nordeste 0 -- -- 79
2020-03-19 08:00:00 8.2 0 Calma 4 Nordeste 0 -- -- 78
2020-03-19 07:00:00 7.8 0 Calma 8 Este 0 -- -- 78
2020-03-19 06:00:00 8.3 7 Este 8 Este 0 -- -- 75
2020-03-19 05:00:00 8.6 5 Este 7 Este 0 -- -- 72
2020-03-19 04:00:00 8.8 2 Este 8 Este 0 -- -- 70
2020-03-19 03:00:00 9.1 4 Este 9 Este 0 -- -- 71
2020-03-19 02:00:00 9.4 7 Este 10 Este 0 -- -- 74
2020-03-19 01:00:00 9.7 8 Este 10 Este 0 -- -- 74
2020-03-19 00:00:00 9.7 6 Este 12 Sudeste 0 -- -- 74
2020-03-18 23:00:00 10.6 7 Sudeste 12 Sudeste 0 -- -- 68
2020-03-18 22:00:00 11.2 8 Sudeste 13 Sudeste 0 -- -- 66
2020-03-18 21:00:00 11.5 10 Sudeste 14 Sudeste 0 -- -- 66
2020-03-18 20:00:00 12.5 6 Sudeste 11 Sudeste 0 -- -- 64
2020-03-18 19:00:00 13.5 8 Sudeste 16 Sur 0 -- -- 62
2020-03-18 18:00:00 15 8 Sudeste 15 Sudeste 0 -- -- 62
2020-03-18 17:00:00 16.1 6 Sudeste 13 Sudeste 0 -- -- 58
2020-03-18 16:00:00 16.6 7 Sudeste 16 Sur 0 -- -- 54
2020-03-18 15:00:00 15.9 4 Nordeste 12 Este 0 -- -- 66
2020-03-18 14:00:00 15.4 4 Oeste 10 Sudoeste 0 -- -- 69
2020-03-18 13:00:00 14.1 4 Noroeste 10 Noroeste 0 -- -- 78
2020-03-18 12:00:00 12.7 5 Oeste 12 Oeste 0 -- -- 84
2020-03-18 11:00:00 11 5 Oeste 9 Oeste 0 -- -- 89
2020-03-18 10:00:00 10 3 Oeste 7 Oeste 0 -- -- 92
2020-03-18 09:00:00 8.8 4 Oeste 8 Sudoeste 0 -- -- 95
2020-03-18 08:00:00 8.9 6 Sudoeste 8 Sudoeste 0 -- -- 90
2020-03-18 07:00:00 9 4 Sudoeste 5 Sudoeste 0 -- -- 92
2020-03-18 06:00:00 9 4 Sudoeste 6 Oeste 0 -- -- 92
2020-03-18 05:00:00 9.6 3 Noroeste 4 Oeste 0 -- -- 91
2020-03-18 04:00:00 10.3 0 Calma 4 Noroeste 0 -- -- 86
2020-03-18 03:00:00 10.8 2 Este 9 Sudeste 0 -- -- 84
2020-03-18 02:00:00 10.9 8 Sudeste 11 Sudeste 0 -- -- 85
2020-03-18 01:00:00 11.2 9 Sudeste 12 Sudeste 0 -- -- 84
2020-03-18 00:00:00 11.1 10 Sudeste 13 Sudeste 0 -- -- 86
2020-03-17 23:00:00 11.4 4 Sudeste 10 Sudeste 0 -- -- 86
2020-03-17 22:00:00 11.7 2 Norte 10 Este 0 -- -- 85
2020-03-17 21:00:00 11.8 6 Sur 13 Sudeste 0 -- -- 86
2020-03-17 20:00:00 12.4 6 Sur 12 Sudeste 0 -- -- 85
2020-03-17 19:00:00 13.4 5 Este 12 Este 0 -- -- 81
2020-03-17 18:00:00 14.3 4 Este 18 Sudeste 0 -- -- 79
2020-03-17 17:00:00 14.6 9 Este 17 Sudeste 0 -- -- 78
2020-03-17 16:00:00 14.9 9 Este 29 Nordeste 0 -- -- 75
2020-03-17 15:00:00 14.8 11 Este 35 Este 0 -- -- 76
2020-03-17 14:00:00 14.3 17 Este 34 Este 0 -- -- 77
2020-03-17 13:00:00 13.4 16 Este 34 Este 0 -- -- 83
2020-03-17 12:00:00 13 21 Este 46 Este 0 -- -- 83
2020-03-17 11:00:00 12.7 23 Este 37 Este 0 -- -- 89
2020-03-17 10:00:00 12.5 23 Este 44 Nordeste 0 -- -- 91
2020-03-17 09:00:00 12.1 24 Este 41 Nordeste 0 -- -- 92
2020-03-17 08:00:00 11.8 17 Este 45 Este 0 -- -- 92
2020-03-17 07:00:00 11.7 28 Nordeste 57 Este 0 -- -- 90
2020-03-17 06:00:00 11.7 27 Este 53 Este 0 -- -- 88
2020-03-17 05:00:00 11.6 23 Este 49 Este 0 -- -- 90
2020-03-17 04:00:00 11.9 20 Nordeste 40 Este 0 -- -- 88
2020-03-17 03:00:00 12 23 Este 49 Este 0 -- -- 89
2020-03-17 02:00:00 12.2 26 Este 46 Este 0 -- -- 89
2020-03-17 01:00:00 12.2 22 Este 42 Este 0 -- -- 89
2020-03-17 00:00:00 12 29 Este 59 Este 0 -- -- 90
2020-03-16 23:00:00 12.2 33 Este 54 Este 0 -- -- 89
2020-03-16 22:00:00 12.4 21 Este 55 Este 0 -- -- 89
2020-03-16 21:00:00 12.4 31 Este 53 Este 0 -- -- 90
2020-03-16 20:00:00 12.1 27 Este 46 Este 0 -- -- 91
2020-03-16 19:00:00 12.1 25 Este 43 Este 0.2 -- -- 94
2020-03-16 18:00:00 12.2 24 Este 48 Nordeste 0.4 -- -- 96
2020-03-16 17:00:00 13.2 25 Este 43 Nordeste 0 -- -- 90
2020-03-16 16:00:00 13.4 23 Este 38 Este 0.2 -- -- 92
2020-03-16 15:00:00 13.2 26 Este 40 Este 0 -- -- 90
2020-03-16 14:00:00 12.3 23 Este 50 Este 0.4 -- -- 95
2020-03-16 13:00:00 12.2 21 Este 45 Este 0 -- -- 91
2020-03-16 12:00:00 11.6 22 Este 43 Este 0 -- -- 84
2020-03-16 11:00:00 11.2 22 Este 42 Este 0 -- -- 83
2020-03-16 10:00:00 10.7 24 Este 45 Este 0 -- -- 82
2020-03-16 09:00:00 10.8 14 Este 33 Este 0 -- -- 87
2020-03-16 08:00:00 10.8 13 Este 28 Este 0 -- -- 89
2020-03-16 07:00:00 10.6 15 Este 27 Este 0 -- -- 87
2020-03-16 06:00:00 10.5 12 Este 23 Este 0 -- -- 89
2020-03-16 05:00:00 10.7 12 Este 27 Este 0 -- -- 93
2020-03-16 04:00:00 10.8 12 Este 21 Este 0.4 -- -- 94
2020-03-16 03:00:00 11.1 8 Este 26 Sudeste 1 -- -- 93
2020-03-16 02:00:00 11.7 10 Sudeste 37 Sudeste 0 -- -- 89
2020-03-16 01:00:00 11.2 18 Sudeste 39 Este 0 -- -- 88
2020-03-16 00:00:00 10.9 15 Este 40 Sudeste 0.2 -- -- 91
2020-03-15 23:00:00 11.6 22 Sudeste 54 Sudeste 0 -- -- 84
2020-03-15 22:00:00 12.2 20 Este 52 Sudeste 0 -- -- 76
2020-03-15 21:00:00 11.9 18 Este 45 Sudeste 0 -- -- 77
2020-03-15 20:00:00 12 17 Este 40 Este 0 -- -- 77
2020-03-15 19:00:00 12.5 19 Este 39 Este 0 -- -- 75
2020-03-15 18:00:00 13.4 18 Este 44 Este 0 -- -- 74
2020-03-15 17:00:00 14.6 18 Este 47 Este 0 -- -- 74
2020-03-15 16:00:00 16 22 Este 47 Sudeste 0 -- -- 70
2020-03-15 15:00:00 16.9 19 Este 44 Este 0 -- -- 66
2020-03-15 14:00:00 16.7 19 Este 40 Este 0 -- -- 66
2020-03-15 13:00:00 15.4 19 Este 44 Sudeste 0 -- -- 69
2020-03-15 12:00:00 15.5 17 Este 36 Este 0 -- -- 68
2020-03-15 11:00:00 14.1 16 Este 34 Este 0 -- -- 73
2020-03-15 10:00:00 12.7 17 Este 35 Este 0 -- -- 81
2020-03-15 09:00:00 11.4 13 Este 26 Este 0 -- -- 86
2020-03-15 08:00:00 9.5 10 Este 18 Este 0 -- -- 95
2020-03-15 07:00:00 8.8 9 Este 17 Este 0 -- -- 97
2020-03-15 06:00:00 9.2 9 Este 15 Este 0 -- -- 97
2020-03-15 05:00:00 8.8 7 Este 11 Este 0 -- -- 98
2020-03-15 04:00:00 8 6 Este 13 Este 0 -- -- 96
2020-03-15 03:00:00 8.1 8 Este 11 Sudeste 0 -- -- 92
2020-03-15 02:00:00 9.4 5 Sudeste 14 Sudeste 0 -- -- 88
2020-03-15 01:00:00 10 10 Sudeste 13 Sudeste 0 -- -- 84
2020-03-15 00:00:00 10.6 10 Sudeste 14 Sudeste 0 -- -- 80
2020-03-14 23:00:00 11 11 Sudeste 16 Sur 0 -- -- 75
2020-03-14 22:00:00 11.7 13 Sudeste 16 Sudeste 0 -- -- 63
2020-03-14 21:00:00 12.9 12 Sudeste 14 Sudeste 0 -- -- 45
2020-03-14 20:00:00 15.2 5 Sudoeste 7 Sudoeste 0 -- -- 36
2020-03-14 19:00:00 16.6 5 Sudoeste 14 Sudoeste 0 -- -- 36
2020-03-14 18:00:00 18.1 7 Sudoeste 17 Oeste 0 -- -- 32
2020-03-14 17:00:00 18 12 Oeste 24 Oeste 0 -- -- 30
2020-03-14 16:00:00 17.6 15 Oeste 28 Oeste 0 -- -- 29
2020-03-14 15:00:00 16.9 18 Oeste 29 Oeste 0 -- -- 29
2020-03-14 14:00:00 15.3 21 Oeste 32 Oeste 0 -- -- 34
2020-03-14 13:00:00 14.5 17 Oeste 32 Oeste 0 -- -- 38
2020-03-14 12:00:00 13 19 Oeste 35 Oeste 0 -- -- 44
2020-03-14 11:00:00 11.4 16 Oeste 36 Sudoeste 0 -- -- 57
2020-03-14 10:00:00 9.9 17 Oeste 32 Oeste 0 -- -- 65
2020-03-14 09:00:00 8.8 17 Oeste 27 Oeste 0 -- -- 72
2020-03-14 08:00:00 7.1 9 Oeste 24 Oeste 0 -- -- 79
2020-03-14 07:00:00 7.4 14 Sudoeste 25 Sudoeste 0 -- -- 77
2020-03-14 06:00:00 7.8 13 Oeste 24 Sudoeste 0 -- -- 76
2020-03-14 05:00:00 8.3 13 Oeste 23 Oeste 0 -- -- 75
2020-03-14 04:00:00 8.9 11 Oeste 24 Oeste 0 -- -- 73
2020-03-14 03:00:00 10 -- -- -- -- 0 -- -- 71
2020-03-14 02:00:00 10.6 12 Oeste 25 Oeste 0 -- -- 70
2020-03-14 01:00:00 10.3 12 Oeste 23 Sudoeste 0 -- -- 74
2020-03-14 00:00:00 10.9 13 Oeste 23 Oeste 0 -- -- 74
2020-03-13 23:00:00 11.9 14 Sudoeste 20 Sudoeste 0 -- -- 77
2020-03-13 22:00:00 12.9 10 Oeste 20 Oeste 0 -- -- 76
2020-03-13 21:00:00 13.5 5 Sur 13 Sur 0 -- -- 74
2020-03-13 20:00:00 14.1 8 Sur 12 Sudeste 0 -- -- 73
2020-03-13 19:00:00 14.9 6 Sudeste 17 Sudeste 0 -- -- 70
2020-03-13 18:00:00 15.9 7 Sudeste 18 Sudeste 0 -- -- 65
2020-03-13 17:00:00 16.9 11 Sudeste 18 Sur 0 -- -- 61
2020-03-13 16:00:00 17.4 2 Norte 12 Norte 0 -- -- 58
2020-03-13 15:00:00 17 3 Noroeste 15 Oeste 0 -- -- 59
2020-03-13 14:00:00 16.1 -- -- -- -- 0 -- -- --
2020-03-13 13:00:00 16 5 Sudoeste 17 Oeste 0 -- -- 61
2020-03-13 12:00:00 14.8 8 Sudoeste 24 Sudoeste 0 -- -- 63
2020-03-13 11:00:00 13.3 15 Sudoeste 30 Sudoeste 0 -- -- 69
2020-03-13 10:00:00 12.3 18 Oeste 28 Oeste 0 -- -- 72
2020-03-13 09:00:00 11 17 Oeste 27 Oeste 0 -- -- 79
2020-03-13 08:00:00 10.2 9 Oeste 15 Sudoeste 0 -- -- 84
2020-03-13 07:00:00 10 8 Sudoeste 18 Sudoeste 0 -- -- 84
2020-03-13 06:00:00 10.2 10 Oeste 22 Sudoeste 0 -- -- 84
2020-03-13 05:00:00 -- -- -- -- -- -- -- -- --
2020-03-13 04:00:00 -- -- -- -- -- -- -- -- --
2020-03-13 03:00:00 -- -- -- -- -- -- -- -- --
2020-03-13 02:00:00 -- -- -- -- -- -- -- -- --
2020-03-13 01:00:00 -- -- -- -- -- -- -- -- --
2020-03-13 00:00:00 -- -- -- -- -- -- -- -- --
2020-03-12 23:00:00 -- -- -- -- -- -- -- -- --
2020-03-12 22:00:00 -- -- -- -- -- -- -- -- --
2020-03-12 21:00:00 -- -- -- -- -- -- -- -- --
2020-03-12 20:00:00 -- -- -- -- -- -- -- -- --
2020-03-12 19:00:00 -- -- -- -- -- -- -- -- --
2020-03-12 18:00:00 -- -- -- -- -- -- -- -- --
2020-03-12 17:00:00 -- -- -- -- -- -- -- -- --
2020-03-12 16:00:00 -- -- -- -- -- -- -- -- --
2020-03-12 15:00:00 -- -- -- -- -- -- -- -- --
2020-03-12 14:00:00 -- -- -- -- -- -- -- -- --
2020-03-12 13:00:00 -- -- -- -- -- -- -- -- --
2020-03-12 12:00:00 -- -- -- -- -- -- -- -- --
2020-03-12 11:00:00 -- -- -- -- -- -- -- -- --
2020-03-12 10:00:00 -- -- -- -- -- -- -- -- --
2020-03-12 09:00:00 -- -- -- -- -- -- -- -- --
2020-03-12 08:00:00 -- -- -- -- -- -- -- -- --
2020-03-12 07:00:00 -- -- -- -- -- -- -- -- --
2020-03-12 06:00:00 -- -- -- -- -- -- -- -- --
2020-03-12 05:00:00 -- -- -- -- -- -- -- -- --
2020-03-12 04:00:00 -- -- -- -- -- -- -- -- --
2020-03-12 03:00:00 -- -- -- -- -- -- -- -- --
2020-03-12 02:00:00 -- -- -- -- -- -- -- -- --
2020-03-12 01:00:00 -- -- -- -- -- -- -- -- --
2020-03-12 00:00:00 -- -- -- -- -- -- -- -- --
2020-03-11 23:00:00 -- -- -- -- -- -- -- -- --
2020-03-11 22:00:00 -- -- -- -- -- -- -- -- --
2020-03-11 21:00:00 -- -- -- -- -- -- -- -- --
2020-03-11 20:00:00 -- -- -- -- -- -- -- -- --
2020-03-11 19:00:00 -- -- -- -- -- -- -- -- --
2020-03-11 18:00:00 -- -- -- -- -- -- -- -- --
2020-03-11 17:00:00 -- -- -- -- -- -- -- -- --
2020-03-11 16:00:00 -- -- -- -- -- -- -- -- --
2020-03-11 15:00:00 -- -- -- -- -- -- -- -- --
2020-03-11 14:00:00 21.5 13 Oeste 22 Oeste 0 -- -- 40
2020-03-11 13:00:00 20.1 12 Oeste 20 Oeste 0 -- -- 44
2020-03-11 12:00:00 18.3 9 Oeste 22 Oeste 0 -- -- 48
2020-03-11 11:00:00 16.2 15 Oeste 23 Oeste 0 -- -- 51
2020-03-11 10:00:00 14.6 15 Oeste 22 Oeste 0 -- -- 50
2020-03-11 09:00:00 12.7 13 Oeste 18 Oeste 0 -- -- 54
2020-03-11 08:00:00 11.6 10 Oeste 18 Oeste 0 -- -- 55
2020-03-11 07:00:00 12.1 10 Oeste 17 Sudoeste 0 -- -- 51
2020-03-11 06:00:00 11.6 9 Oeste 13 Sudoeste 0 -- -- 54
2020-03-11 05:00:00 12.9 8 Oeste 18 Oeste 0 -- -- 49
2020-03-11 04:00:00 12.9 13 Oeste 18 Sudoeste 0 -- -- 50
2020-03-11 03:00:00 13.8 14 Oeste 22 Sudoeste 0 -- -- 47
2020-03-11 02:00:00 14.4 14 Sudoeste 18 Sudoeste 0 -- -- 47
2020-03-11 01:00:00 14.9 12 Oeste 18 Oeste 0 -- -- 48
2020-03-11 00:00:00 14.9 11 Oeste 20 Sudoeste 0 -- -- 49
2020-03-10 23:00:00 15.8 16 Sudoeste 22 Sudoeste 0 -- -- 48
2020-03-10 22:00:00 15.9 15 Oeste 23 Sudoeste 0 -- -- 51
2020-03-10 21:00:00 16.7 13 Oeste 19 Sudoeste 0 -- -- 45
2020-03-10 20:00:00 18.2 12 Sudoeste 18 Sudoeste 0 -- -- 40
2020-03-10 19:00:00 18.7 9 Oeste 15 Oeste 0 -- -- 40
2020-03-10 18:00:00 20 14 Oeste 30 Oeste 0 -- -- 37
2020-03-10 17:00:00 20.2 22 Oeste 32 Oeste 0 -- -- 33
2020-03-10 16:00:00 19.5 19 Oeste 34 Oeste 0 -- -- 32
2020-03-10 15:00:00 18.9 14 Oeste 32 Oeste 0 -- -- 35
2020-03-10 14:00:00 16.9 14 Oeste 28 Oeste 0 -- -- 39
2020-03-10 13:00:00 15.8 20 Oeste 38 Oeste 0 -- -- 38
2020-03-10 12:00:00 15 24 Oeste 38 Oeste 0 -- -- 40
2020-03-10 11:00:00 14 26 Oeste 40 Oeste 0 -- -- 45
2020-03-10 10:00:00 11.7 19 Oeste 34 Oeste 0 -- -- 52
2020-03-10 09:00:00 9.4 16 Oeste 29 Oeste 0 -- -- 61
2020-03-10 08:00:00 8.5 14 Oeste 25 Oeste 0 -- -- 63
2020-03-10 07:00:00 7.9 13 Oeste 21 Sudoeste 0 -- -- 65
2020-03-10 06:00:00 8.1 14 Sudoeste 28 Oeste 0 -- -- 67
2020-03-10 05:00:00 7.8 15 Sudoeste 28 Sudoeste 0 -- -- 69
2020-03-10 04:00:00 7.9 18 Oeste 31 Sudoeste 0 -- -- 70
2020-03-10 03:00:00 7.9 18 Oeste 32 Sudoeste 0 -- -- 71
2020-03-10 02:00:00 7.8 17 Oeste 33 Oeste 0 -- -- 74
2020-03-10 01:00:00 7.9 19 Oeste 31 Oeste 0 -- -- 72
2020-03-10 00:00:00 8.2 18 Oeste 46 Oeste 0 -- -- 69
2020-03-09 23:00:00 8.8 30 Oeste 53 Oeste 0 -- -- 65
2020-03-09 22:00:00 9.2 37 Oeste 62 Oeste 0 -- -- 63
2020-03-09 21:00:00 10.1 44 Oeste 70 Oeste 0 -- -- 58
2020-03-09 20:00:00 10.7 36 Oeste 67 Oeste 0 -- -- 59
2020-03-09 19:00:00 11.7 41 Oeste 77 Oeste 0 -- -- 54
2020-03-09 18:00:00 13 49 Oeste 78 Oeste 0 -- -- 49
2020-03-09 17:00:00 13.9 46 Oeste 77 Oeste 0 -- -- 48
2020-03-09 16:00:00 14.8 45 Oeste 71 Oeste 0 -- -- 42
2020-03-09 15:00:00 14.6 40 Oeste 83 Oeste 0 -- -- 43
2020-03-09 14:00:00 14 45 Oeste 76 Oeste 0 -- -- 46
2020-03-09 13:00:00 13.4 48 Oeste 76 Oeste 0 -- -- 49
2020-03-09 12:00:00 12 48 Oeste 77 Oeste 0 -- -- 55
2020-03-09 11:00:00 11.3 46 Oeste 66 Oeste 0 -- -- 56
2020-03-09 10:00:00 10.6 37 Oeste 72 Oeste 0 -- -- 60
2020-03-09 09:00:00 9.9 45 Oeste 66 Oeste 0 -- -- 62
2020-03-09 08:00:00 8.7 39 Oeste 59 Oeste 0 -- -- 71
2020-03-09 07:00:00 8.8 37 Oeste 64 Oeste 0 -- -- 74
2020-03-09 06:00:00 8.9 35 Oeste 54 Oeste 0 -- -- 74
2020-03-09 05:00:00 9.3 31 Oeste 56 Oeste 0 -- -- 75
2020-03-09 04:00:00 9.4 28 Oeste 38 Oeste 0 -- -- 78
2020-03-09 03:00:00 9.1 24 Oeste 36 Oeste 0 -- -- 79
2020-03-09 02:00:00 9.9 13 Oeste 22 Oeste 0 -- -- 69
2020-03-09 01:00:00 10.4 13 Oeste 21 Sudoeste 0 -- -- 64
2020-03-09 00:00:00 10.7 12 Oeste 19 Sudoeste 0 -- -- 59
2020-03-08 23:00:00 11 8 Oeste 17 Sudoeste 0 -- -- 55
2020-03-08 22:00:00 12.7 9 Oeste 18 Sudoeste 0 -- -- 48
2020-03-08 21:00:00 12.9 10 Oeste 16 Sudoeste 0 -- -- 46
2020-03-08 20:00:00 14.3 12 Sudoeste 15 Sudoeste 0 -- -- 40
2020-03-08 19:00:00 15.3 8 Oeste 17 Oeste 0 -- -- 39
2020-03-08 18:00:00 16.3 12 Oeste 25 Oeste 0 -- -- 37
2020-03-08 17:00:00 17.3 14 Oeste 28 Oeste 0 -- -- 37
2020-03-08 16:00:00 17.3 19 Oeste 33 Noroeste 0 -- -- 39
2020-03-08 15:00:00 17.1 24 Oeste 40 Oeste 0 -- -- 40
2020-03-08 14:00:00 16.4 21 Oeste 37 Oeste 0 -- -- 43
2020-03-08 13:00:00 15.7 19 Oeste 33 Oeste 0 -- -- 46
2020-03-08 12:00:00 14.3 22 Oeste 35 Oeste 0 -- -- 52
2020-03-08 11:00:00 12.4 20 Oeste 33 Oeste 0 -- -- 58
2020-03-08 10:00:00 10.5 14 Oeste 28 Oeste 0 -- -- 63
2020-03-08 09:00:00 8.7 14 Oeste 23 Sudoeste 0 -- -- 68
2020-03-08 08:00:00 7.1 15 Sudoeste 22 Sudoeste 0 -- -- 73
2020-03-08 07:00:00 6.6 10 Sudoeste 22 Sudoeste 0 -- -- 75
2020-03-08 06:00:00 7.7 15 Sudoeste 23 Sudoeste 0 -- -- 71
2020-03-08 05:00:00 7.9 15 Sudoeste 27 Sudoeste 0 -- -- 70
2020-03-08 04:00:00 7.9 13 Sudoeste 23 Sudoeste 0 -- -- 71
2020-03-08 03:00:00 8.4 15 Sudoeste 24 Sudoeste 0 -- -- 71
2020-03-08 02:00:00 8.9 10 Oeste 27 Oeste 0 -- -- 71
2020-03-08 01:00:00 9.5 17 Oeste 32 Sudoeste 0 -- -- 70
2020-03-08 00:00:00 9.6 19 Oeste 31 Sudoeste 0 -- -- 71
2020-03-07 23:00:00 9.6 19 Oeste 43 Oeste 0 -- -- 72
2020-03-07 22:00:00 10 29 Oeste 43 Oeste 0 -- -- 72
2020-03-07 21:00:00 10.9 22 Oeste 46 Oeste 0 -- -- 69
2020-03-07 20:00:00 12 33 Oeste 53 Oeste 0 -- -- 62
2020-03-07 19:00:00 13.2 27 Oeste 48 Oeste 0 -- -- 56
2020-03-07 18:00:00 14 30 Oeste 51 Oeste 0 -- -- 52
2020-03-07 17:00:00 15.6 39 Oeste 62 Oeste 0 -- -- 47
2020-03-07 16:00:00 16 35 Oeste 57 Oeste 0 -- -- 46
2020-03-07 15:00:00 15.4 36 Oeste 60 Oeste 0 -- -- 47
2020-03-07 14:00:00 14.3 38 Oeste 57 Oeste 0 -- -- 53
2020-03-07 13:00:00 13.7 30 Oeste 50 Oeste 0 -- -- 53
2020-03-07 12:00:00 11.1 32 Oeste 55 Noroeste 0 -- -- 62
2020-03-07 11:00:00 9.7 32 Oeste 56 Noroeste 0 -- -- 67
2020-03-07 10:00:00 8.1 33 Oeste 55 Oeste 0 -- -- 71
2020-03-07 09:00:00 6.8 28 Oeste 49 Oeste 0 -- -- 73
2020-03-07 08:00:00 5.5 26 Oeste 55 Oeste 0 -- -- 77
2020-03-07 07:00:00 5.2 30 Oeste 47 Oeste 0 -- -- 79
2020-03-07 06:00:00 4.9 32 Oeste 56 Oeste 0 -- -- 81
2020-03-07 05:00:00 4.9 33 Oeste 53 Oeste 0 -- -- 80
2020-03-07 04:00:00 4.6 34 Oeste 48 Oeste 0 -- -- 81
2020-03-07 03:00:00 4.6 27 Oeste 50 Oeste 0 -- -- 79
2020-03-07 02:00:00 4.5 28 Oeste 63 Oeste 0 -- -- 80
2020-03-07 01:00:00 4.8 39 Oeste 65 Noroeste 0 -- -- 79
2020-03-07 00:00:00 4.9 42 Oeste 71 Oeste 0 -- -- 78
2020-03-06 23:00:00 5 34 Oeste 68 Oeste 0 -- -- 78
2020-03-06 22:00:00 5.5 41 Oeste 72 Oeste 0 -- -- 75
2020-03-06 21:00:00 5.9 51 Oeste 75 Oeste 0 -- -- 71
2020-03-06 20:00:00 6.1 49 Oeste 87 Oeste 0 -- -- 69
2020-03-06 19:00:00 7.1 57 Oeste 92 Oeste 0 -- -- 61
2020-03-06 18:00:00 8.7 44 Oeste 80 Oeste 0 -- -- 54
2020-03-06 17:00:00 9.6 45 Oeste 78 Oeste 0 -- -- 50
2020-03-06 16:00:00 10.5 45 Noroeste 76 Oeste 0 -- -- 44
2020-03-06 15:00:00 10.6 51 Oeste 85 Oeste 0 -- -- 45
2020-03-06 14:00:00 10.3 53 Oeste 88 Oeste 0 -- -- 46
2020-03-06 13:00:00 10.9 52 Oeste 86 Oeste 0 -- -- 48
2020-03-06 12:00:00 9.7 44 Oeste 64 Oeste 0 -- -- 58
2020-03-06 11:00:00 9.3 37 Oeste 66 Oeste 0 -- -- 62
2020-03-06 10:00:00 8.5 24 Oeste 38 Oeste 0 -- -- 69
2020-03-06 09:00:00 8.2 18 Oeste 27 Oeste 0 -- -- 69
2020-03-06 08:00:00 6.5 11 Oeste 20 Oeste 0 -- -- 74
2020-03-06 07:00:00 6 13 Oeste 24 Oeste 0 -- -- 76
2020-03-06 06:00:00 6.2 15 Oeste 24 Oeste 0 -- -- 74
2020-03-06 05:00:00 7.2 12 Oeste 28 Oeste 0 -- -- 71
2020-03-06 04:00:00 7 22 Oeste 34 Oeste 0 -- -- 71
2020-03-06 03:00:00 6.8 24 Oeste 39 Oeste 0 -- -- 71
2020-03-06 02:00:00 7.7 28 Oeste 46 Oeste 0 -- -- 65
2020-03-06 01:00:00 8 32 Oeste 53 Oeste 0 -- -- 62
2020-03-06 00:00:00 8.8 38 Oeste 59 Oeste 0 -- -- 58
2020-03-05 23:00:00 9.4 37 Oeste 60 Oeste 0 -- -- 59
2020-03-05 22:00:00 10.8 41 Oeste 58 Oeste 0 -- -- 57
2020-03-05 21:00:00 11.4 34 Oeste 52 Oeste 0 -- -- 60
2020-03-05 20:00:00 12.1 19 Oeste 39 Noroeste 0 -- -- 61
2020-03-05 19:00:00 13.4 24 Oeste 46 Oeste 0 -- -- 54
2020-03-05 18:00:00 15.4 24 Noroeste 44 Oeste 0 -- -- 51
2020-03-05 17:00:00 16.9 37 Oeste 68 Oeste 0 -- -- 44
2020-03-05 16:00:00 16.4 35 Oeste 56 Oeste 0 -- -- 43
2020-03-05 15:00:00 14.1 35 Oeste 95 Oeste 0 -- -- 63
2020-03-05 14:00:00 18.3 20 Oeste 45 Sudoeste 0 -- -- 53
2020-03-05 13:00:00 18.6 20 Oeste 41 Oeste 0 -- -- 51
2020-03-05 12:00:00 17.2 22 Oeste 39 Oeste 0 -- -- 53
2020-03-05 11:00:00 16 23 Oeste 39 Oeste 0 -- -- 58
2020-03-05 10:00:00 15.7 15 Oeste 30 Sudoeste 0 -- -- 59
2020-03-05 09:00:00 14.1 9 Sudoeste 19 Sudoeste 0 -- -- 61
2020-03-05 08:00:00 12.8 13 Sudoeste 22 Sudoeste 0 -- -- 62
2020-03-05 07:00:00 12.4 12 Sudoeste 19 Sudoeste 0 -- -- 63
2020-03-05 06:00:00 12.7 8 Sudoeste 29 Sudoeste 0 -- -- 61
2020-03-05 05:00:00 12.7 14 Sudoeste 23 Sudoeste 0 -- -- 61
2020-03-05 04:00:00 12.9 14 Sudoeste 22 Sudoeste 0 -- -- 60
2020-03-05 03:00:00 13.5 11 Sur 20 Sudoeste 0 -- -- 58
2020-03-05 02:00:00 13.6 16 Sudoeste 27 Sudoeste 0 -- -- 59
2020-03-05 01:00:00 13.9 15 Sudoeste 22 Sudoeste 0 -- -- 58
2020-03-05 00:00:00 14.9 15 Sudoeste 29 Sudoeste 0 -- -- 55
2020-03-04 23:00:00 14.4 13 Sudoeste 21 Sudoeste 0 -- -- 58
2020-03-04 22:00:00 14.7 13 Sudoeste 20 Sudoeste 0 -- -- 59
2020-03-04 21:00:00 15.1 8 Sudoeste 19 Sudoeste 0 -- -- 64
2020-03-04 20:00:00 15.5 12 Sudoeste 20 Oeste 0 -- -- 67
2020-03-04 19:00:00 17.1 11 Oeste 31 Oeste 0 -- -- 60
2020-03-04 18:00:00 18.9 24 Oeste 37 Oeste 0 -- -- 54
2020-03-04 17:00:00 19.2 23 Oeste 39 Oeste 0 -- -- 54
2020-03-04 16:00:00 18.8 30 Oeste 50 Oeste 0 -- -- 56
2020-03-04 15:00:00 18.9 27 Oeste 50 Oeste 0 -- -- 55
2020-03-04 14:00:00 17.4 33 Oeste 46 Oeste 0 -- -- 59
2020-03-04 13:00:00 16 23 Oeste 35 Oeste 0 -- -- 64
2020-03-04 12:00:00 16 19 Oeste 29 Oeste 0 -- -- 63
2020-03-04 11:00:00 14.2 19 Oeste 26 Oeste 0 -- -- 63
2020-03-04 10:00:00 12.5 16 Oeste 27 Oeste 0 -- -- 68
2020-03-04 09:00:00 10.5 13 Oeste 22 Oeste 0 -- -- 74
2020-03-04 08:00:00 9.4 14 Oeste 18 Oeste 0 -- -- 77
2020-03-04 07:00:00 9 11 Oeste 24 Oeste 0 -- -- 78
2020-03-04 06:00:00 8.8 18 Oeste 28 Oeste 0 -- -- 78
2020-03-04 05:00:00 8.7 18 Oeste 28 Oeste 0 -- -- 78
2020-03-04 04:00:00 8.9 21 Oeste 32 Oeste 0 -- -- 77
2020-03-04 03:00:00 9.1 21 Oeste 37 Sudoeste 0 -- -- 76
2020-03-04 02:00:00 9.3 21 Oeste 34 Oeste 0 -- -- 73
2020-03-04 01:00:00 9.6 14 Sudoeste 43 Oeste 0 -- -- 71
2020-03-04 00:00:00 11.1 26 Oeste 61 Noroeste 0 -- -- 60